Terminal Aerodrome Forecast
Issued by NWS Cleveland, OH

Home | Current Version | Previous Version | Text Only | Print | Product List | Glossary Off
Versions: 1 2 3 4 5 6 7 8 9 10 11 12 13 14 15 16 17 18 19 20 21 22 23 24 25 26

000
FTUS41 KCLE 022342
TAFCAK
TAF
KCAK 022342Z 0300/0324 15012G20KT P6SM BKN050 OVC150
     FM030600 18020G30KT 6SM -SHRA SCT025 OVC035
      TEMPO 0306/0310 3SM -TSRA BKN015 OVC025CB
     FM031000 20020G30KT 5SM -RA SCT025 OVC035
     FM031700 23015G25KT P6SM BKN035 OVC050=

USA.gov is the U.S. government's official web portal to all federal, state and local government web resources and services.